Prosser, Washington
Current Conditions -  °F | °C
As of 12:53 AM on Sunday 26 Oct 2014 (Local Time) from KPSC Reporting Station
Clear Clear  
Wind Chill: 55°   Ceiling: Unl
Heat Index: 55°   Visibility: 10mi
Dew Point: 43°   Wind: 21mph
Humidity: 64%   Direction: 230°SW
Pressure: 29.82"   Gusts: 31mph
Location:  46.21°N, 119.77°W
Report Text: KPSC 260753Z AUTO 23018G27KT 10SM CLR 13/06 A2982 RMK AO2 PK WND 24027/0747 SLP097 T01280061 401720067
Loading
Personal Weather Stations






























Interactive Weather Map
Tropical Storm Tracking
New forecast layout! Learn more

10-Day Weather Forecast

Advertisements
Track Severe Weather on mobile